createdAt,value
2023-10-04T00:01:43.037Z,56.61
2023-10-04T00:04:09.662Z,56.70
2023-10-04T00:06:36.268Z,56.69
2023-10-04T00:09:04.660Z,56.46
2023-10-04T00:11:32.350Z,56.80
2023-10-04T00:13:58.846Z,56.64
2023-10-04T00:16:27.218Z,56.67
2023-10-04T00:18:55.821Z,56.68
2023-10-04T00:21:22.257Z,56.76
2023-10-04T00:23:48.848Z,56.51
2023-10-04T00:26:15.608Z,56.55
2023-10-04T00:28:42.007Z,56.56
2023-10-04T00:31:08.416Z,56.34
2023-10-04T00:33:36.553Z,56.47
2023-10-04T00:36:04.989Z,56.30
2023-10-04T00:38:32.103Z,56.43
2023-10-04T00:40:58.513Z,56.47
2023-10-04T00:43:25.033Z,56.37
2023-10-04T00:45:51.431Z,56.41
2023-10-04T00:48:24.894Z,56.46
2023-10-04T00:50:51.438Z,56.25
2023-10-04T00:53:18.051Z,56.45
2023-10-04T00:55:47.643Z,56.28
2023-10-04T00:58:15.104Z,56.59
2023-10-04T01:00:45.081Z,56.29
2023-10-04T01:03:12.337Z,56.40
2023-10-04T01:05:49.088Z,56.36
2023-10-04T01:08:21.301Z,56.16
2023-10-04T01:10:48.431Z,56.37
2023-10-04T01:13:18.657Z,56.20
2023-10-04T01:15:45.561Z,56.15
2023-10-04T01:18:13.285Z,55.98
2023-10-04T01:20:40.407Z,56.22
2023-10-04T01:23:07.656Z,55.93
2023-10-04T01:25:34.720Z,55.91
2023-10-04T01:28:01.745Z,56.03
2023-10-04T01:30:28.975Z,56.06
2023-10-04T01:32:56.100Z,55.84
2023-10-04T01:35:25.761Z,56.15
2023-10-04T01:37:53.191Z,55.78
2023-10-04T01:40:20.603Z,55.91
2023-10-04T01:42:47.128Z,55.85
2023-10-04T01:45:16.994Z,55.93
2023-10-04T01:47:43.940Z,55.86
2023-10-04T01:50:12.729Z,55.88
2023-10-04T01:52:39.480Z,55.77
2023-10-04T01:55:06.992Z,55.62
2023-10-04T01:57:34.392Z,55.62
2023-10-04T02:00:00.801Z,55.69
2023-10-04T02:02:29.240Z,55.65
2023-10-04T02:04:56.050Z,55.71
2023-10-04T02:07:25.462Z,55.55
2023-10-04T02:09:54.742Z,55.66
2023-10-04T02:12:23.449Z,55.60
2023-10-04T02:14:49.875Z,55.67
2023-10-04T02:17:19.515Z,55.65
2023-10-04T02:19:45.885Z,55.35
2023-10-04T02:22:12.249Z,55.44
2023-10-04T02:24:39.812Z,55.55
2023-10-04T02:27:09.640Z,55.48
2023-10-04T02:29:36.802Z,55.32
2023-10-04T02:32:09.356Z,55.50
2023-10-04T02:34:42.644Z,55.46
2023-10-04T02:37:10.174Z,55.33
2023-10-04T02:39:39.184Z,55.24
2023-10-04T02:42:10.840Z,55.34
2023-10-04T02:44:37.928Z,55.36
2023-10-04T02:47:07.479Z,55.42
2023-10-04T02:49:34.920Z,55.35
2023-10-04T02:52:01.404Z,55.29
2023-10-04T02:54:29.233Z,55.36
2023-10-04T02:56:57.143Z,55.31
2023-10-04T02:59:25.860Z,55.31
2023-10-04T03:01:52.242Z,55.23
2023-10-04T03:04:19.332Z,55.32
2023-10-04T03:06:47.038Z,55.32
2023-10-04T03:09:13.589Z,55.17
2023-10-04T03:11:43.464Z,55.18
2023-10-04T03:14:12.616Z,55.00
2023-10-04T03:16:41.656Z,55.17
2023-10-04T03:19:08.729Z,55.13
2023-10-04T03:21:35.640Z,55.15
2023-10-04T03:24:06.764Z,55.07
2023-10-04T03:26:33.179Z,55.19
2023-10-04T03:28:59.548Z,55.05
2023-10-04T03:31:26.062Z,55.28
2023-10-04T03:33:54.316Z,55.19
2023-10-04T03:36:21.034Z,55.21
2023-10-04T03:38:48.124Z,54.96
2023-10-04T03:41:14.704Z,55.22
2023-10-04T03:43:41.952Z,55.14
2023-10-04T03:46:18.257Z,55.03
2023-10-04T03:48:48.505Z,54.94
2023-10-04T03:51:16.322Z,55.05
2023-10-04T03:53:45.486Z,54.92
2023-10-04T03:56:11.893Z,54.91
2023-10-04T03:58:38.308Z,55.05
2023-10-04T04:01:04.730Z,54.92
2023-10-04T04:03:34.181Z,54.87
2023-10-04T04:06:01.728Z,54.85
2023-10-04T04:08:28.184Z,54.98
2023-10-04T04:10:55.111Z,54.81
2023-10-04T04:13:21.533Z,54.90
2023-10-04T04:15:49.322Z,55.00
2023-10-04T04:18:21.764Z,55.03
2023-10-04T04:20:48.730Z,54.88
2023-10-04T04:23:16.565Z,54.90
2023-10-04T04:25:43.483Z,54.99
2023-10-04T04:28:13.718Z,55.07
2023-10-04T04:30:40.329Z,54.83
2023-10-04T04:33:08.541Z,54.91
2023-10-04T04:35:35.333Z,54.94
2023-10-04T04:38:11.174Z,54.92
2023-10-04T04:40:38.921Z,54.90
2023-10-04T04:43:26.946Z,54.80
2023-10-04T04:45:54.454Z,54.95
2023-10-04T04:48:25.645Z,54.86
2023-10-04T04:50:55.433Z,54.81
2023-10-04T04:53:25.605Z,54.75
2023-10-04T04:55:52.149Z,54.76
2023-10-04T04:58:20.036Z,54.79
2023-10-04T05:00:48.414Z,54.62
2023-10-04T05:03:14.821Z,54.87
2023-10-04T05:05:41.750Z,54.84
2023-10-04T05:08:09.355Z,54.89
2023-10-04T05:10:41.146Z,54.97
2023-10-04T05:13:14.288Z,54.85
2023-10-04T05:15:43.639Z,55.05
2023-10-04T05:18:16.279Z,54.98
2023-10-04T05:20:46.437Z,54.95
2023-10-04T05:23:12.872Z,54.89
2023-10-04T05:25:39.317Z,54.82
2023-10-04T05:28:15.193Z,54.80
2023-10-04T05:30:45.594Z,54.88
2023-10-04T05:33:12.300Z,54.97
2023-10-04T05:35:38.772Z,54.79
2023-10-04T05:38:08.240Z,54.84
2023-10-04T05:40:39.471Z,54.80
2023-10-04T05:43:06.089Z,54.73
2023-10-04T05:45:32.778Z,54.83
2023-10-04T05:48:00.478Z,54.71
2023-10-04T05:50:27.268Z,54.69
2023-10-04T05:52:58.225Z,54.60
2023-10-04T05:55:25.102Z,54.76
2023-10-04T05:57:51.478Z,54.78
2023-10-04T06:00:33.367Z,54.60
2023-10-04T06:03:00.226Z,54.61
2023-10-04T06:05:28.571Z,54.73
2023-10-04T06:07:58.318Z,54.76
2023-10-04T06:10:26.033Z,54.85
2023-10-04T06:12:55.531Z,54.74
2023-10-04T06:15:22.057Z,54.78
2023-10-04T06:17:48.686Z,54.77
2023-10-04T06:20:25.995Z,54.72
2023-10-04T06:22:52.943Z,54.46
2023-10-04T06:25:23.053Z,54.70
2023-10-04T06:27:53.706Z,54.60
2023-10-04T06:30:22.359Z,54.80
2023-10-04T06:32:51.637Z,54.43
2023-10-04T06:35:18.437Z,54.35
2023-10-04T06:37:45.621Z,54.02
2023-10-04T06:40:20.717Z,54.20
2023-10-04T06:42:47.258Z,54.19
2023-10-04T06:45:14.424Z,54.62
2023-10-04T06:47:42.813Z,54.93
2023-10-04T06:50:09.815Z,54.77
2023-10-04T06:52:36.473Z,54.88
2023-10-04T06:55:03.733Z,54.57
2023-10-04T06:57:31.228Z,54.83
2023-10-04T06:59:59.373Z,54.57
2023-10-04T07:02:25.794Z,54.64
2023-10-04T07:04:52.184Z,54.51
2023-10-04T07:07:18.992Z,54.61
2023-10-04T07:09:45.686Z,54.50
2023-10-04T07:12:12.212Z,54.50
2023-10-04T07:14:39.361Z,54.43
2023-10-04T07:17:05.798Z,54.38
2023-10-04T07:19:32.845Z,54.53
2023-10-04T07:22:01.053Z,54.39
2023-10-04T07:24:27.469Z,54.39
2023-10-04T07:26:56.721Z,54.26
2023-10-04T07:29:23.383Z,54.18
2023-10-04T07:31:51.380Z,54.34
2023-10-04T07:34:18.430Z,54.27
2023-10-04T07:36:46.294Z,54.50
2023-10-04T07:39:16.988Z,54.50
2023-10-04T07:41:43.462Z,54.55
2023-10-04T07:44:11.275Z,54.54
2023-10-04T07:46:39.139Z,54.50
2023-10-04T07:49:06.103Z,54.46
2023-10-04T07:51:32.923Z,54.39
2023-10-04T07:53:59.346Z,54.46
2023-10-04T07:56:27.805Z,54.46
2023-10-04T07:58:54.249Z,54.51
2023-10-04T08:01:20.708Z,54.23
2023-10-04T08:03:47.177Z,54.60
2023-10-04T08:06:13.648Z,54.61
2023-10-04T08:08:42.816Z,54.60
2023-10-04T08:11:10.027Z,54.34
2023-10-04T08:13:36.405Z,54.57
2023-10-04T08:16:04.841Z,54.33
2023-10-04T08:18:31.824Z,54.58
2023-10-04T08:21:04.018Z,54.15
2023-10-04T08:23:30.391Z,54.28
2023-10-04T08:25:56.760Z,54.34
2023-10-04T08:28:23.320Z,54.36
2023-10-04T08:30:52.430Z,54.26
2023-10-04T08:33:20.859Z,54.19
2023-10-04T08:35:47.971Z,54.26
2023-10-04T08:38:14.514Z,54.28
2023-10-04T08:40:41.018Z,54.21
2023-10-04T08:43:08.912Z,54.29
2023-10-04T08:45:35.912Z,54.36
2023-10-04T08:48:02.707Z,54.41
2023-10-04T08:50:42.877Z,54.17
2023-10-04T08:53:23.081Z,54.21
2023-10-04T08:55:49.886Z,54.12
2023-10-04T08:58:16.286Z,54.42
2023-10-04T09:00:45.787Z,54.18
2023-10-04T09:03:13.431Z,54.21
2023-10-04T09:05:40.341Z,54.18
2023-10-04T09:08:06.801Z,54.20
2023-10-04T09:10:34.541Z,54.29
2023-10-04T09:13:05.138Z,54.24
2023-10-04T09:15:32.186Z,54.25
2023-10-04T09:17:59.086Z,54.20
2023-10-04T09:20:30.284Z,54.07
2023-10-04T09:22:57.127Z,54.32
2023-10-04T09:25:24.006Z,54.13
2023-10-04T09:27:55.162Z,54.24
2023-10-04T09:30:25.510Z,54.12
2023-10-04T09:32:52.677Z,54.05
2023-10-04T09:35:22.007Z,53.95
2023-10-04T09:37:49.696Z,54.02
2023-10-04T09:40:18.914Z,54.06
2023-10-04T09:42:46.184Z,53.99
2023-10-04T09:45:13.619Z,54.00
2023-10-04T09:47:40.204Z,53.74
2023-10-04T09:50:10.552Z,54.08
2023-10-04T09:52:38.968Z,54.09
2023-10-04T09:55:06.823Z,54.02
2023-10-04T09:57:33.888Z,53.85
2023-10-04T10:00:01.163Z,53.95
2023-10-04T10:02:28.304Z,53.77
2023-10-04T10:04:54.682Z,53.64
2023-10-04T10:07:22.719Z,53.66
2023-10-04T10:10:00.527Z,53.79
2023-10-04T10:12:31.305Z,53.85
2023-10-04T10:15:05.449Z,53.76
2023-10-04T10:17:32.850Z,53.43
2023-10-04T10:20:00.510Z,53.42
2023-10-04T10:22:26.986Z,53.37
2023-10-04T10:24:56.629Z,53.52
2023-10-04T10:27:26.727Z,53.46
2023-10-04T10:29:53.260Z,53.47
2023-10-04T10:32:24.118Z,53.49
2023-10-04T10:34:51.479Z,53.59
2023-10-04T10:37:19.404Z,53.88
2023-10-04T10:39:47.121Z,53.50
2023-10-04T10:42:14.086Z,53.33
2023-10-04T10:44:41.645Z,53.35
2023-10-04T10:47:23.891Z,53.31
2023-10-04T10:49:54.154Z,53.48
2023-10-04T10:52:21.157Z,53.12
2023-10-04T10:54:47.955Z,52.78
2023-10-04T10:57:15.136Z,52.61
2023-10-04T10:59:41.777Z,52.67
2023-10-04T11:02:08.260Z,52.61
2023-10-04T11:04:35.366Z,52.68
2023-10-04T11:07:01.874Z,52.80
2023-10-04T11:09:40.970Z,52.51
2023-10-04T11:12:11.038Z,52.17
2023-10-04T11:14:41.335Z,52.37
2023-10-04T11:17:07.856Z,52.29
2023-10-04T11:19:37.265Z,52.25
2023-10-04T11:22:06.365Z,52.27
2023-10-04T11:24:34.150Z,52.35
2023-10-04T11:27:00.657Z,52.25
2023-10-04T11:29:27.786Z,52.47
2023-10-04T11:31:55.970Z,52.49
2023-10-04T11:34:22.440Z,52.49
2023-10-04T11:36:49.022Z,52.27
2023-10-04T11:39:19.917Z,52.01
2023-10-04T11:41:47.477Z,51.82
2023-10-04T11:44:14.658Z,51.80
2023-10-04T11:46:56.679Z,51.86
2023-10-04T11:49:23.111Z,51.57
2023-10-04T11:51:51.492Z,51.56
2023-10-04T11:54:18.999Z,51.73
2023-10-04T11:56:45.442Z,51.67
2023-10-04T11:59:12.060Z,51.64
2023-10-04T12:02:07.554Z,52.10
2023-10-04T12:04:34.214Z,52.11
2023-10-04T12:07:01.580Z,51.69
2023-10-04T12:09:32.720Z,51.61
2023-10-04T12:11:59.758Z,51.45
2023-10-04T12:14:28.074Z,51.80
2023-10-04T12:16:54.503Z,51.42
2023-10-04T12:19:20.911Z,51.60
2023-10-04T12:21:47.382Z,51.63
2023-10-04T12:24:13.827Z,51.60
2023-10-04T12:26:40.699Z,51.78
2023-10-04T12:29:08.752Z,51.49
2023-10-04T12:31:35.482Z,51.50
2023-10-04T12:34:02.073Z,51.44
2023-10-04T12:36:31.530Z,51.26
2023-10-04T12:39:07.674Z,51.40
2023-10-04T12:41:34.235Z,51.54
2023-10-04T12:44:01.167Z,51.73
2023-10-04T12:46:27.904Z,51.96
2023-10-04T12:48:54.422Z,51.78
2023-10-04T12:51:20.900Z,51.86
2023-10-04T12:53:47.450Z,51.67
2023-10-04T12:56:14.975Z,51.55
2023-10-04T12:58:41.606Z,51.62
2023-10-04T13:01:08.755Z,51.56
2023-10-04T13:03:36.134Z,51.62
2023-10-04T13:06:04.334Z,51.28
2023-10-04T13:08:32.512Z,51.15
2023-10-04T13:10:59.607Z,51.03
2023-10-04T13:13:26.022Z,50.94
2023-10-04T13:15:52.652Z,51.01
2023-10-04T13:18:21.756Z,51.00
2023-10-04T13:20:51.539Z,51.18
2023-10-04T13:23:17.965Z,51.11
2023-10-04T13:25:45.825Z,51.20
2023-10-04T13:28:18.180Z,51.27
2023-10-04T13:30:46.355Z,51.23
2023-10-04T13:33:13.212Z,51.32
2023-10-04T13:35:40.501Z,51.13
2023-10-04T13:38:07.706Z,51.34
2023-10-04T13:40:34.858Z,51.04
2023-10-04T13:43:06.421Z,50.81
2023-10-04T13:45:33.179Z,50.85
2023-10-04T13:48:07.275Z,51.06
2023-10-04T13:50:34.083Z,51.17
2023-10-04T13:53:01.309Z,51.23
2023-10-04T13:55:29.158Z,51.45
2023-10-04T13:57:56.971Z,51.29
2023-10-04T14:00:24.169Z,51.27
2023-10-04T14:02:56.032Z,51.21
2023-10-04T14:05:23.482Z,51.37
2023-10-04T14:07:52.984Z,51.44
2023-10-04T14:10:23.502Z,51.38
2023-10-04T14:12:57.029Z,51.36
2023-10-04T14:15:25.997Z,51.33
2023-10-04T14:17:52.966Z,51.58
2023-10-04T14:20:21.568Z,51.39
2023-10-04T14:22:49.596Z,51.40
2023-10-04T14:25:16.024Z,51.52
2023-10-04T14:27:44.339Z,51.51
2023-10-04T14:30:14.139Z,51.52
2023-10-04T14:32:40.924Z,51.39
2023-10-04T14:35:09.380Z,51.27
2023-10-04T14:37:39.245Z,51.45
2023-10-04T14:40:11.923Z,51.41
2023-10-04T14:42:39.479Z,51.40
2023-10-04T14:45:08.770Z,51.15
2023-10-04T14:47:35.499Z,51.17
2023-10-04T14:50:02.046Z,51.13
2023-10-04T14:52:31.399Z,51.34
2023-10-04T14:55:01.640Z,51.48
2023-10-04T14:57:28.311Z,51.35
2023-10-04T14:59:55.591Z,51.48
2023-10-04T15:02:21.981Z,51.38
2023-10-04T15:04:48.526Z,51.37
2023-10-04T15:07:15.219Z,51.49
2023-10-04T15:09:42.152Z,51.40
2023-10-04T15:12:10.229Z,51.22
2023-10-04T15:14:37.189Z,51.34
2023-10-04T15:17:04.934Z,51.25
2023-10-04T15:19:31.895Z,51.14
2023-10-04T15:21:58.279Z,51.31
2023-10-04T15:24:25.167Z,51.23
2023-10-04T15:26:51.586Z,51.23
2023-10-04T15:29:18.017Z,51.21
2023-10-04T15:31:45.548Z,51.21
2023-10-04T15:34:13.831Z,51.27
2023-10-04T15:36:41.018Z,51.08
2023-10-04T15:39:15.206Z,51.27
2023-10-04T15:41:41.616Z,51.20
2023-10-04T15:44:10.182Z,51.21
2023-10-04T15:46:36.629Z,51.42
2023-10-04T15:49:03.527Z,51.28
2023-10-04T15:51:29.939Z,51.37
2023-10-04T15:53:56.479Z,51.33
2023-10-04T15:56:22.861Z,51.23
2023-10-04T15:58:49.239Z,51.27
2023-10-04T16:01:19.434Z,51.25
2023-10-04T16:03:47.551Z,51.23
2023-10-04T16:06:14.112Z,51.39
2023-10-04T16:08:41.450Z,51.36
2023-10-04T16:11:08.786Z,51.42
2023-10-04T16:13:35.513Z,51.37
2023-10-04T16:16:02.157Z,51.52
2023-10-04T16:18:31.444Z,51.71
2023-10-04T16:20:57.910Z,52.52
2023-10-04T16:23:24.345Z,52.66
2023-10-04T16:25:51.683Z,52.33
2023-10-04T16:28:18.057Z,52.33
2023-10-04T16:30:44.547Z,52.13
2023-10-04T16:33:11.330Z,52.41
2023-10-04T16:35:39.600Z,52.42
2023-10-04T16:38:06.883Z,52.62
2023-10-04T16:40:33.514Z,52.89
2023-10-04T16:42:59.964Z,53.24
2023-10-04T16:45:26.372Z,53.33
2023-10-04T16:47:54.078Z,53.58
2023-10-04T16:50:20.979Z,53.39
2023-10-04T16:52:47.984Z,53.36
2023-10-04T16:55:15.486Z,53.61
2023-10-04T16:57:42.529Z,53.53
2023-10-04T17:00:16.646Z,53.43
2023-10-04T17:02:43.515Z,53.52
2023-10-04T17:05:10.531Z,53.43
2023-10-04T17:07:37.088Z,53.46
2023-10-04T17:10:03.697Z,53.55
2023-10-04T17:12:30.103Z,53.56
2023-10-04T17:14:56.809Z,53.72
2023-10-04T17:17:23.164Z,53.56
2023-10-04T17:19:50.524Z,53.69
2023-10-04T17:22:20.554Z,53.48
2023-10-04T17:24:47.462Z,53.48
2023-10-04T17:27:15.042Z,53.46
2023-10-04T17:29:42.813Z,53.57
2023-10-04T17:32:09.203Z,53.36
2023-10-04T17:34:35.672Z,53.31
2023-10-04T17:37:02.720Z,53.47
2023-10-04T17:39:30.542Z,53.73
2023-10-04T17:41:59.149Z,53.33
2023-10-04T17:44:28.974Z,53.15
2023-10-04T17:46:57.554Z,53.46
2023-10-04T17:49:24.746Z,53.20
2023-10-04T17:51:54.315Z,53.11
2023-10-04T17:54:20.954Z,53.36
2023-10-04T17:56:47.395Z,53.54
2023-10-04T17:59:14.210Z,53.55
2023-10-04T18:01:40.940Z,53.72
2023-10-04T18:04:08.841Z,53.89
2023-10-04T18:06:36.583Z,53.71
2023-10-04T18:09:03.419Z,53.86
2023-10-04T18:11:31.266Z,53.88
2023-10-04T18:13:57.885Z,53.96
2023-10-04T18:16:24.274Z,53.86
2023-10-04T18:18:50.798Z,53.91
2023-10-04T18:21:17.307Z,53.85
2023-10-04T18:23:43.717Z,53.77
2023-10-04T18:26:11.161Z,54.03
2023-10-04T18:28:37.544Z,53.77
2023-10-04T18:31:05.327Z,53.88
2023-10-04T18:33:31.997Z,53.79
2023-10-04T18:35:58.750Z,53.78
2023-10-04T18:38:25.192Z,53.55
2023-10-04T18:40:51.920Z,53.66
2023-10-04T18:43:18.303Z,53.34
2023-10-04T18:45:45.356Z,53.47
2023-10-04T18:48:11.906Z,53.38
2023-10-04T18:50:38.361Z,53.25
2023-10-04T18:53:05.370Z,53.26
2023-10-04T18:55:34.908Z,52.96
2023-10-04T18:58:01.437Z,53.33
2023-10-04T19:00:27.842Z,53.26
2023-10-04T19:02:54.317Z,53.08
2023-10-04T19:05:20.828Z,53.25
2023-10-04T19:07:48.922Z,53.28
2023-10-04T19:10:17.536Z,53.19
2023-10-04T19:12:44.410Z,53.32
2023-10-04T19:15:11.080Z,53.26
2023-10-04T19:17:38.017Z,53.28
2023-10-04T19:20:06.483Z,53.15
2023-10-04T19:22:33.194Z,53.43
2023-10-04T19:25:00.111Z,53.22
2023-10-04T19:27:26.579Z,53.37
2023-10-04T19:29:53.624Z,53.38
2023-10-04T19:32:20.313Z,53.24
2023-10-04T19:34:46.689Z,53.21
2023-10-04T19:37:14.549Z,53.52
2023-10-04T19:39:41.216Z,53.44
2023-10-04T19:42:10.252Z,53.42
2023-10-04T19:44:39.082Z,53.34
2023-10-04T19:47:05.973Z,53.57
2023-10-04T19:49:33.535Z,53.32
2023-10-04T19:51:59.912Z,53.42
2023-10-04T19:54:26.358Z,53.42
2023-10-04T19:56:52.714Z,53.37
2023-10-04T19:59:19.093Z,53.33
2023-10-04T20:01:46.543Z,53.33
2023-10-04T20:04:13.185Z,53.46
2023-10-04T20:06:42.258Z,53.40
2023-10-04T20:09:12.988Z,53.38
2023-10-04T20:11:39.394Z,53.41
2023-10-04T20:14:06.057Z,53.42
2023-10-04T20:16:32.692Z,53.36
2023-10-04T20:19:02.170Z,53.46
2023-10-04T20:21:28.715Z,53.44
2023-10-04T20:23:55.252Z,52.35
2023-10-04T20:26:23.634Z,53.45
2023-10-04T20:28:50.166Z,53.30
2023-10-04T20:31:18.119Z,53.45
2023-10-04T20:33:44.998Z,53.37
2023-10-04T20:36:13.551Z,53.36
2023-10-04T20:38:43.009Z,53.45
2023-10-04T20:41:09.438Z,53.19
2023-10-04T20:44:04.045Z,53.30
2023-10-04T20:46:30.676Z,53.15
2023-10-04T20:48:57.099Z,53.16
2023-10-04T20:51:24.917Z,53.13
2023-10-04T20:53:51.611Z,53.16
2023-10-04T20:56:17.993Z,53.31
2023-10-04T20:58:44.388Z,53.14
2023-10-04T21:01:10.923Z,53.08
2023-10-04T21:03:37.564Z,53.14
2023-10-04T21:06:04.105Z,53.21
2023-10-04T21:08:30.479Z,53.27
2023-10-04T21:10:59.248Z,53.25
2023-10-04T21:13:25.692Z,53.09
2023-10-04T21:15:52.078Z,53.20
2023-10-04T21:18:18.654Z,53.24
2023-10-04T21:20:45.853Z,53.32
2023-10-04T21:23:12.341Z,53.23
2023-10-04T21:25:39.387Z,53.18
2023-10-04T21:28:06.222Z,53.37
2023-10-04T21:30:40.592Z,53.20
2023-10-04T21:33:19.895Z,53.27
2023-10-04T21:35:53.311Z,53.34
2023-10-04T21:38:27.245Z,53.36
2023-10-04T21:40:57.665Z,53.09
2023-10-04T21:43:24.736Z,53.35
2023-10-04T21:45:58.585Z,53.25
2023-10-04T21:48:30.106Z,53.26
2023-10-04T21:50:58.821Z,53.24
2023-10-04T21:53:25.429Z,53.26
2023-10-04T21:55:52.195Z,53.36
2023-10-04T21:58:18.596Z,53.34
2023-10-04T22:00:46.508Z,53.40
2023-10-04T22:03:13.231Z,53.27
2023-10-04T22:05:40.596Z,53.48
2023-10-04T22:08:13.519Z,53.31
2023-10-04T22:10:39.959Z,53.38
2023-10-04T22:13:08.690Z,53.39
2023-10-04T22:15:35.519Z,53.28
2023-10-04T22:18:01.902Z,53.35
2023-10-04T22:20:30.350Z,53.38
2023-10-04T22:22:58.285Z,53.33
2023-10-04T22:25:24.843Z,53.27
2023-10-04T22:27:51.591Z,53.28
2023-10-04T22:30:23.555Z,53.28
2023-10-04T22:32:53.166Z,53.37
2023-10-04T22:35:24.498Z,53.22
2023-10-04T22:37:51.682Z,53.28
2023-10-04T22:40:21.718Z,53.27
2023-10-04T22:42:51.044Z,53.47
2023-10-04T22:45:20.818Z,53.49
2023-10-04T22:47:50.254Z,53.47
2023-10-04T22:50:17.584Z,53.44
2023-10-04T22:52:44.105Z,53.55
2023-10-04T22:55:19.652Z,53.42
2023-10-04T22:57:51.799Z,53.29
2023-10-04T23:00:24.875Z,53.45
2023-10-04T23:02:51.781Z,53.30
2023-10-04T23:05:21.167Z,53.25
2023-10-04T23:07:47.857Z,53.41
2023-10-04T23:10:14.721Z,53.32
2023-10-04T23:12:43.172Z,53.29
2023-10-04T23:15:14.806Z,53.42
2023-10-04T23:17:41.868Z,53.42
2023-10-04T23:20:28.446Z,53.44
2023-10-04T23:22:57.919Z,53.43
2023-10-04T23:25:26.216Z,53.34
2023-10-04T23:27:54.279Z,53.48
2023-10-04T23:30:21.649Z,53.34
2023-10-04T23:32:48.155Z,53.42
2023-10-04T23:35:20.528Z,53.26
2023-10-04T23:37:52.323Z,53.40
2023-10-04T23:40:25.405Z,53.37
2023-10-04T23:42:55.253Z,53.27
2023-10-04T23:45:22.010Z,53.30
2023-10-04T23:48:01.192Z,53.32
2023-10-04T23:50:27.742Z,53.34
2023-10-04T23:52:58.623Z,53.24
2023-10-04T23:55:28.292Z,53.29
2023-10-04T23:57:55.327Z,53.28
